createdAt,value
2018-04-02T00:00:26.977Z,12.70
2018-04-02T00:02:55.187Z,12.70
2018-04-02T00:05:24.252Z,12.60
2018-04-02T00:07:53.246Z,12.70
2018-04-02T00:10:21.492Z,12.60
2018-04-02T00:12:49.746Z,12.60
2018-04-02T00:15:17.970Z,12.60
2018-04-02T00:17:46.966Z,12.70
2018-04-02T00:20:15.981Z,12.70
2018-04-02T00:22:44.199Z,12.70
2018-04-02T00:25:12.407Z,12.70
2018-04-02T00:27:41.405Z,12.60
2018-04-02T00:30:09.636Z,12.60
2018-04-02T00:32:37.850Z,12.60
2018-04-02T00:35:06.146Z,12.60
2018-04-02T00:37:34.362Z,12.60
2018-04-02T00:40:03.363Z,12.60
2018-04-02T00:42:32.413Z,12.70
2018-04-02T00:45:00.604Z,12.60
2018-04-02T00:47:31.506Z,12.60
2018-04-02T00:49:59.729Z,12.50
2018-04-02T00:52:28.041Z,12.50
2018-04-02T00:54:56.292Z,12.50
2018-04-02T00:57:24.567Z,12.50
2018-04-02T00:59:53.620Z,12.50
2018-04-02T01:02:21.846Z,12.40
2018-04-02T01:04:50.037Z,12.50
2018-04-02T01:07:18.205Z,12.50
2018-04-02T01:09:46.383Z,12.50
2018-04-02T01:12:14.605Z,12.50
2018-04-02T01:14:42.812Z,12.40
2018-04-02T01:17:11.898Z,12.30
2018-04-02T01:19:40.163Z,12.30
2018-04-02T01:22:08.379Z,12.40
2018-04-02T01:24:37.333Z,12.40
2018-04-02T01:27:05.562Z,12.40
2018-04-02T01:29:33.894Z,12.40
2018-04-02T01:32:02.148Z,12.50
2018-04-02T01:34:30.305Z,12.50
2018-04-02T01:36:58.499Z,12.40
2018-04-02T01:39:26.721Z,12.50
2018-04-02T01:41:54.905Z,12.50
2018-04-02T01:44:23.118Z,12.50
2018-04-02T01:46:52.091Z,12.50
2018-04-02T01:49:21.040Z,12.60
2018-04-02T01:51:50.037Z,12.60
2018-04-02T02:13:25.215Z,12.40
2018-04-02T02:15:58.362Z,12.40
2018-04-02T02:18:32.520Z,12.40
2018-04-02T02:21:00.752Z,12.40
2018-04-02T02:23:29.030Z,12.40
2018-04-02T02:25:57.249Z,12.40
2018-04-02T02:28:27.512Z,12.40
2018-04-02T02:30:55.729Z,12.40
2018-04-02T02:33:23.986Z,12.40
2018-04-02T02:35:52.204Z,12.40
2018-04-02T02:38:20.388Z,12.30
2018-04-02T02:40:48.596Z,12.30
2018-04-02T02:43:16.798Z,12.20
2018-04-02T02:45:45.107Z,12.30
2018-04-02T02:48:13.357Z,12.30
2018-04-02T02:50:41.569Z,12.30
2018-04-02T02:53:10.549Z,12.30
2018-04-02T02:55:39.537Z,12.30
2018-04-02T02:58:08.641Z,12.20
2018-04-02T03:00:36.840Z,12.20
2018-04-02T03:03:05.369Z,12.20
2018-04-02T03:05:34.338Z,12.10
2018-04-02T03:08:02.570Z,12.10
2018-04-02T03:10:31.629Z,12.20
2018-04-02T03:13:00.594Z,12.00
2018-04-02T03:15:28.865Z,11.90
2018-04-02T03:17:57.076Z,12.00
2018-04-02T03:20:25.352Z,12.00
2018-04-02T03:22:53.612Z,12.10
2018-04-02T03:25:21.849Z,12.10
2018-04-02T03:27:50.047Z,12.10
2018-04-02T03:30:18.333Z,12.20
2018-04-02T03:32:46.525Z,12.10
2018-04-02T03:35:14.754Z,12.10
2018-04-02T03:37:42.976Z,12.10
2018-04-02T03:40:11.204Z,12.10
2018-04-02T03:42:39.439Z,12.20
2018-04-02T03:45:07.763Z,12.10
2018-04-02T03:47:36.016Z,12.10
2018-04-02T03:50:04.183Z,12.20
2018-04-02T03:52:43.480Z,12.10
2018-04-02T03:55:16.036Z,12.10
2018-04-02T03:57:44.275Z,12.20
2018-04-02T04:00:12.537Z,12.20
2018-04-02T04:02:40.793Z,12.20
2018-04-02T04:05:09.159Z,12.10
2018-04-02T04:07:37.398Z,12.10
2018-04-02T04:10:05.587Z,12.00
2018-04-02T04:12:33.830Z,12.00
2018-04-02T04:15:02.115Z,12.10
2018-04-02T04:17:30.369Z,12.00
2018-04-02T04:19:58.577Z,12.10
2018-04-02T04:22:26.831Z,12.10
2018-04-02T04:24:55.093Z,12.10
2018-04-02T04:27:23.405Z,12.20
2018-04-02T04:29:51.674Z,12.20
2018-04-02T04:32:19.918Z,12.20
2018-04-02T04:34:48.195Z,12.20
2018-04-02T04:37:16.473Z,12.10
2018-04-02T04:39:44.736Z,12.10
2018-04-02T04:42:13.716Z,12.10
2018-04-02T04:44:41.888Z,12.10
2018-04-02T04:47:10.073Z,12.10
2018-04-02T04:49:39.040Z,12.20
2018-04-02T04:52:07.567Z,12.10
2018-04-02T04:54:35.824Z,12.20
2018-04-02T04:57:04.061Z,12.20
2018-04-02T04:59:32.266Z,12.20
2018-04-02T05:02:00.502Z,12.20
2018-04-02T05:04:28.719Z,12.20
2018-04-02T05:06:56.909Z,12.30
2018-04-02T05:09:25.143Z,12.30
2018-04-02T05:11:54.170Z,12.40
2018-04-02T05:14:22.434Z,12.30
2018-04-02T05:16:50.709Z,12.40
2018-04-02T05:19:19.094Z,12.30
2018-04-02T05:21:47.496Z,12.30
2018-04-02T05:24:15.944Z,12.30
2018-04-02T05:26:44.218Z,12.30
2018-04-02T05:29:12.402Z,12.30
2018-04-02T05:31:40.702Z,12.20
2018-04-02T05:34:08.962Z,12.30
2018-04-02T05:36:38.016Z,12.30
2018-04-02T05:39:07.158Z,12.20
2018-04-02T05:41:36.189Z,12.20
2018-04-02T05:44:04.518Z,12.20
2018-04-02T05:46:33.595Z,12.20
2018-04-02T05:49:02.125Z,12.20
2018-04-02T05:51:30.393Z,12.20
2018-04-02T05:53:58.681Z,12.20
2018-04-02T05:56:26.866Z,12.30
2018-04-02T05:58:55.075Z,12.40
2018-04-02T06:01:23.416Z,12.40
2018-04-02T06:03:52.900Z,12.60
2018-04-02T06:06:21.209Z,12.50
2018-04-02T06:08:50.214Z,12.60
2018-04-02T06:11:18.557Z,12.50
2018-04-02T06:13:47.256Z,12.60
2018-04-02T06:16:16.346Z,12.80
2018-04-02T06:18:45.476Z,12.70
2018-04-02T06:21:14.640Z,12.70
2018-04-02T06:23:42.949Z,12.70
2018-04-02T06:39:07.906Z,13.00
2018-04-02T06:42:15.936Z,13.00
2018-04-02T06:52:09.035Z,13.20
2018-04-02T06:54:37.392Z,13.30
2018-04-02T07:17:11.950Z,13.70
2018-04-02T07:59:20.290Z,14.50
2018-04-02T08:12:24.388Z,14.90
2018-04-02T08:21:43.616Z,15.20
2018-04-02T08:28:00.473Z,15.30
2018-04-02T08:33:56.772Z,15.30
2018-04-02T08:56:36.969Z,15.00
2018-04-02T09:03:25.878Z,15.00
2018-04-02T09:05:54.276Z,15.00
2018-04-02T09:11:45.167Z,14.90
2018-04-02T09:18:05.724Z,15.40
2018-04-02T09:20:34.014Z,15.30
2018-04-02T09:23:03.155Z,15.50
2018-04-02T09:25:32.144Z,15.70
2018-04-02T09:28:00.528Z,15.60
2018-04-02T09:30:28.841Z,15.80
2018-04-02T09:32:57.281Z,15.70
2018-04-02T09:35:26.661Z,15.60
2018-04-02T09:37:55.705Z,15.50
2018-04-02T09:40:24.162Z,15.50
2018-04-02T09:42:52.465Z,15.70
2018-04-02T09:45:21.591Z,15.80
2018-04-02T09:47:49.791Z,15.80
2018-04-02T09:50:18.034Z,15.80
2018-04-02T09:52:46.335Z,15.90
2018-04-02T09:55:14.733Z,16.10
2018-04-02T09:57:43.900Z,16.00
2018-04-02T10:00:12.369Z,16.10
2018-04-02T10:02:40.786Z,16.10
2018-04-02T10:05:11.738Z,16.20
2018-04-02T10:07:41.644Z,16.40
2018-04-02T10:10:10.881Z,16.30
2018-04-02T10:12:39.192Z,16.30
2018-04-02T10:15:07.562Z,16.20
2018-04-02T10:17:36.602Z,16.30
2018-04-02T10:20:06.486Z,16.20
2018-04-02T10:22:35.578Z,16.60
2018-04-02T10:25:04.680Z,16.60
2018-04-02T10:27:33.072Z,16.60
2018-04-02T10:30:03.086Z,16.60
2018-04-02T10:32:36.727Z,16.50
2018-04-02T10:35:05.152Z,16.50
2018-04-02T10:37:33.701Z,16.50
2018-04-02T10:40:02.257Z,16.60
2018-04-02T10:42:30.657Z,16.50
2018-04-02T10:44:59.735Z,16.50
2018-04-02T10:47:27.988Z,16.60
2018-04-02T10:49:56.338Z,16.60
2018-04-02T10:52:24.724Z,16.90
2018-04-02T10:54:53.848Z,17.10
2018-04-02T10:57:22.148Z,17.10
2018-04-02T10:59:50.424Z,17.20
2018-04-02T11:02:18.834Z,17.20
2018-04-02T11:04:47.056Z,17.40
2018-04-02T11:07:16.229Z,17.40
2018-04-02T11:09:44.961Z,17.40
2018-04-02T11:12:13.566Z,17.40
2018-04-02T11:14:41.925Z,17.30
2018-04-02T11:17:10.402Z,17.40
2018-04-02T11:19:38.858Z,17.50
2018-04-02T11:22:07.348Z,17.60
2018-04-02T11:24:35.673Z,17.70
2018-04-02T11:27:04.032Z,17.70
2018-04-02T11:29:33.105Z,17.70
2018-04-02T11:32:01.607Z,17.70
2018-04-02T11:34:31.763Z,17.70
2018-04-02T11:37:02.723Z,17.80
2018-04-02T11:39:32.138Z,17.90
2018-04-02T11:42:01.397Z,17.70
2018-04-02T11:44:29.856Z,17.70
2018-04-02T11:46:58.255Z,17.90
2018-04-02T11:49:26.640Z,18.00
2018-04-02T11:51:54.896Z,18.10
2018-04-02T11:54:23.986Z,18.10
2018-04-02T11:56:53.720Z,18.30
2018-04-02T11:59:23.902Z,18.10
2018-04-02T12:01:52.159Z,18.30
2018-04-02T12:04:20.619Z,18.20
2018-04-02T12:06:49.075Z,18.30
2018-04-02T12:09:17.482Z,18.30
2018-04-02T12:11:45.931Z,18.10
2018-04-02T12:14:14.153Z,18.00
2018-04-02T12:16:42.402Z,18.00
2018-04-02T12:19:10.634Z,18.20
2018-04-02T12:21:39.725Z,18.40
2018-04-02T12:24:08.070Z,18.40
2018-04-02T12:26:36.321Z,18.50
2018-04-02T12:32:07.898Z,18.30
2018-04-02T12:34:36.255Z,18.30
2018-04-02T12:37:06.611Z,18.20
2018-04-02T12:53:41.079Z,18.10
2018-04-02T12:56:10.323Z,18.30
2018-04-02T12:58:38.657Z,18.30
2018-04-02T13:01:06.923Z,18.50
2018-04-02T13:03:35.284Z,18.70
2018-04-02T13:06:03.515Z,18.60
2018-04-02T13:08:31.805Z,18.40
2018-04-02T13:11:00.050Z,18.40
2018-04-02T13:13:28.349Z,18.60
2018-04-02T13:15:56.733Z,18.80
2018-04-02T13:18:24.995Z,18.80
2018-04-02T13:20:53.332Z,18.90
2018-04-02T13:23:22.287Z,18.90
2018-04-02T13:25:51.445Z,18.80
2018-04-02T13:28:19.822Z,18.90
2018-04-02T13:30:48.160Z,18.70
2018-04-02T13:33:16.380Z,18.90
2018-04-02T13:35:44.628Z,18.80
2018-04-02T13:38:12.910Z,18.90
2018-04-02T13:40:41.246Z,19.00
2018-04-02T13:43:09.503Z,18.90
2018-04-02T13:45:38.531Z,18.90
2018-04-02T13:48:06.797Z,18.90
2018-04-02T13:50:35.184Z,18.80
2018-04-02T13:55:38.676Z,18.70
2018-04-02T13:58:06.968Z,19.00
2018-04-02T14:00:37.615Z,19.10
2018-04-02T14:03:05.856Z,19.20
2018-04-02T14:05:34.257Z,19.10
2018-04-02T14:08:02.500Z,19.30
2018-04-02T14:10:30.822Z,19.10
2018-04-02T14:12:59.181Z,19.30
2018-04-02T14:15:27.528Z,19.20
2018-04-02T14:17:55.876Z,18.90
2018-04-02T14:20:24.220Z,18.80
2018-04-02T14:22:52.559Z,18.90
2018-04-02T14:25:23.095Z,18.80
2018-04-02T14:27:51.400Z,18.90
2018-04-02T14:30:19.775Z,18.90
2018-04-02T14:32:47.998Z,19.00
2018-04-02T14:35:17.451Z,19.00
2018-04-02T14:37:45.711Z,18.90
2018-04-02T14:40:16.077Z,19.00
2018-04-02T14:42:44.374Z,19.00
2018-04-02T14:45:12.676Z,19.20
2018-04-02T14:47:41.873Z,18.80
2018-04-02T14:50:11.022Z,18.80
2018-04-02T14:52:39.268Z,18.80
2018-04-02T14:55:07.602Z,18.90
2018-04-02T14:57:35.915Z,18.70
2018-04-02T15:00:04.338Z,18.60
2018-04-02T15:02:32.720Z,18.80
2018-04-02T15:05:01.756Z,18.60
2018-04-02T15:07:30.131Z,18.60
2018-04-02T15:09:58.384Z,18.80
2018-04-02T15:12:26.680Z,18.70
2018-04-02T15:14:55.015Z,18.60
2018-04-02T15:17:24.249Z,18.80
2018-04-02T15:19:52.573Z,18.80
2018-04-02T15:22:20.864Z,18.80
2018-04-02T15:24:49.191Z,18.80
2018-04-02T15:27:17.574Z,18.90
2018-04-02T15:29:46.729Z,18.60
2018-04-02T15:32:16.029Z,18.80
2018-04-02T15:41:55.796Z,19.00
2018-04-02T15:48:04.631Z,19.20
2018-04-02T15:50:33.029Z,18.80
2018-04-02T15:53:49.715Z,18.80
2018-04-02T15:56:18.099Z,18.90
2018-04-02T15:58:46.619Z,19.00
2018-04-02T16:01:15.837Z,19.00
2018-04-02T16:07:26.524Z,19.40
2018-04-02T16:16:37.024Z,21.80
2018-04-02T16:25:53.455Z,23.00
2018-04-02T16:28:32.479Z,22.80
2018-04-02T16:31:22.808Z,21.80
2018-04-02T16:33:51.608Z,20.80
2018-04-02T16:49:48.487Z,17.90
2018-04-02T16:55:38.274Z,17.50
2018-04-02T16:58:11.413Z,17.40
2018-04-02T17:00:41.003Z,17.20
2018-04-02T17:03:18.993Z,17.00
2018-04-02T17:06:08.486Z,16.90
2018-04-02T17:08:46.886Z,16.80
2018-04-02T17:11:16.081Z,16.50
2018-04-02T17:13:49.916Z,16.50
2018-04-02T17:16:34.997Z,16.50
2018-04-02T17:29:43.289Z,16.20
2018-04-02T17:32:34.009Z,16.10
2018-04-02T17:35:02.411Z,16.10
2018-04-02T17:37:34.674Z,15.90
2018-04-02T17:40:03.221Z,15.90
2018-04-02T17:42:46.047Z,15.90
2018-04-02T17:45:15.068Z,15.80
2018-04-02T17:47:43.383Z,15.80
2018-04-02T17:50:11.730Z,15.80
2018-04-02T17:52:42.066Z,15.80
2018-04-02T17:55:13.659Z,15.80
2018-04-02T17:57:42.868Z,15.70
2018-04-02T18:00:12.081Z,15.60
2018-04-02T18:02:40.596Z,15.60
2018-04-02T18:05:09.198Z,15.50
2018-04-02T18:07:37.612Z,15.50
2018-04-02T18:10:06.143Z,15.40
2018-04-02T18:12:35.536Z,15.40
2018-04-02T18:15:03.942Z,15.50
2018-04-02T18:17:32.341Z,15.50
2018-04-02T18:20:01.766Z,15.50
2018-04-02T18:22:30.163Z,15.60
2018-04-02T18:24:58.490Z,15.50
2018-04-02T18:30:02.601Z,15.60
2018-04-02T18:32:31.731Z,15.60
2018-04-02T18:35:00.020Z,15.50
2018-04-02T18:37:28.304Z,15.60
2018-04-02T18:39:56.552Z,15.60
2018-04-02T18:42:24.967Z,15.60
2018-04-02T18:44:53.277Z,15.50
2018-04-02T18:47:21.681Z,15.40
2018-04-02T18:49:49.984Z,15.40
2018-04-02T18:52:18.331Z,15.30
2018-04-02T18:54:46.708Z,15.40
2018-04-02T18:57:15.008Z,15.40
2018-04-02T18:59:44.180Z,15.30
2018-04-02T19:02:12.584Z,15.20
2018-04-02T19:04:45.130Z,15.20
2018-04-02T19:07:13.387Z,15.20
2018-04-02T19:09:41.608Z,15.20
2018-04-02T19:12:10.612Z,15.20
2018-04-02T19:14:39.626Z,15.20
2018-04-02T19:17:07.991Z,15.10
2018-04-02T19:19:36.257Z,15.20
2018-04-02T19:22:04.712Z,15.20
2018-04-02T19:24:33.729Z,15.00
2018-04-02T19:27:02.037Z,14.90
2018-04-02T19:42:52.793Z,14.80
2018-04-02T19:48:43.521Z,14.70
2018-04-02T20:34:57.655Z,13.90
2018-04-02T20:38:11.151Z,13.80
2018-04-02T20:40:39.540Z,13.70
2018-04-02T20:43:21.454Z,13.60
2018-04-02T20:45:49.733Z,13.60
2018-04-02T20:48:18.067Z,13.60
2018-04-02T20:50:50.160Z,13.50
2018-04-02T20:53:42.762Z,13.50
2018-04-02T20:56:20.762Z,13.40
2018-04-02T21:28:06.651Z,13.00
2018-04-02T21:37:33.430Z,13.00
2018-04-02T21:40:32.324Z,12.90
2018-04-02T21:43:00.573Z,13.00
2018-04-02T21:45:28.788Z,13.00
2018-04-02T21:47:59.910Z,13.00
2018-04-02T21:50:28.514Z,13.00
2018-04-02T21:52:57.403Z,13.00
2018-04-02T21:55:29.147Z,13.00
2018-04-02T21:57:57.562Z,13.00
2018-04-02T22:00:26.149Z,13.00
2018-04-02T22:02:54.478Z,13.00
2018-04-02T22:05:22.679Z,12.90
2018-04-02T22:07:50.977Z,13.00
2018-04-02T22:10:20.077Z,12.90
2018-04-02T22:12:48.368Z,12.80
2018-04-02T22:15:16.727Z,12.80
2018-04-02T22:17:45.140Z,12.80
2018-04-02T22:20:13.804Z,12.80
2018-04-02T22:22:42.113Z,12.80
2018-04-02T22:25:10.355Z,12.80
2018-04-02T22:27:38.657Z,12.80
2018-04-02T22:30:06.885Z,12.80
2018-04-02T22:32:35.286Z,12.70
2018-04-02T22:35:04.021Z,12.60
2018-04-02T22:37:32.275Z,12.60
2018-04-02T22:40:01.363Z,12.50
2018-04-02T22:42:30.150Z,12.50
2018-04-02T22:44:58.377Z,12.50
2018-04-02T22:47:27.413Z,12.50
2018-04-02T22:49:55.725Z,12.40
2018-04-02T22:52:24.979Z,12.50
2018-04-02T22:54:53.369Z,12.40
2018-04-02T22:57:21.607Z,12.40
2018-04-02T22:59:49.781Z,12.40
2018-04-02T23:02:18.815Z,12.30
2018-04-02T23:04:47.139Z,12.30
2018-04-02T23:07:15.359Z,12.20
2018-04-02T23:09:43.589Z,12.30
2018-04-02T23:12:11.803Z,12.30
2018-04-02T23:14:40.059Z,12.30
2018-04-02T23:17:08.673Z,12.30
2018-04-02T23:19:36.923Z,12.30
2018-04-02T23:22:05.201Z,12.20
2018-04-02T23:24:33.436Z,12.20
2018-04-02T23:27:01.776Z,12.20
2018-04-02T23:29:30.024Z,12.10
2018-04-02T23:31:58.258Z,12.00
2018-04-02T23:34:27.421Z,12.10
2018-04-02T23:36:55.599Z,12.00
2018-04-02T23:39:24.609Z,12.00
2018-04-02T23:41:52.794Z,12.00
2018-04-02T23:44:20.970Z,12.10
2018-04-02T23:46:49.173Z,12.00
2018-04-02T23:49:17.422Z,12.00
2018-04-02T23:51:45.820Z,12.00
2018-04-02T23:54:14.055Z,12.00
2018-04-02T23:56:42.246Z,11.90
2018-04-02T23:59:10.554Z,11.80
